Byrdstown, Tennessee
Current Conditions -  °F | °C
As of 11:56 AM on Thursday 29 Jan 2015 (Local Time) from KEKQ Reporting Station
Broken Clouds Broken Clouds  
Wind Chill: 58°   Ceiling: 4400
Heat Index: 58°   Visibility: 10mi
Dew Point: 38°   Wind: 16mph
Humidity: 47%   Direction: 220°SW
Pressure: 30.01"   Gusts: 28mph
Location:  36.57°N, 85.13°W
Report Text: KEKQ 291756Z AUTO 22014G24KT 10SM BKN044 14/03 A3001 RMK AO2 58017 60001 T01440033 10144 20061 BKN V OVC PK WND 21032/1739 SLP165
Loading
Personal Weather Stations






























Interactive Weather Map New forecast layout! Learn more

10-Day Weather Forecast

Advertisements
Track Severe Weather on mobile